Time;durP1;ratioP1;P1;durP2;ratioP2;P2;SDS_P1;SDS_P2;PMS_P1;PMS_P2;Temp;Humidity;BMP_temperature;BMP_pressure;BME280_temperature;BME280_humidity;BME280_pressure;Samples;Min_cycle;Max_cycle;Signal;HPM_P1;HPM_P2
2024/02/27 00:00:25;;;;;;;33.47;20.88;;;;;;;-146.18;100.00;67994.34;10342888;28;20060;-71
2024/02/27 00:05:22;;;;;;;31.77;19.52;;;;;;;-146.18;100.00;67994.34;10352289;27;20063;-72
2024/02/27 00:10:19;;;;;;;30.33;19.30;;;;;;;-146.18;100.00;67994.34;10352330;27;20055;-72
2024/02/27 00:15:15;;;;;;;31.63;19.10;;;;;;;-146.18;100.00;67994.34;10352196;27;20044;-72
2024/02/27 00:20:12;;;;;;;35.38;20.02;;;;;;;-146.18;100.00;67994.34;10353275;27;20499;-73
2024/02/27 00:25:09;;;;;;;30.95;18.15;;;;;;;-146.18;100.00;67994.34;10362892;27;21076;-71
2024/02/27 00:30:06;;;;;;;31.70;18.67;;;;;;;-146.18;100.00;67994.34;10347636;27;20101;-71
2024/02/27 00:35:04;;;;;;;30.80;19.05;;;;;;;-146.18;100.00;67994.34;10356663;27;20090;-73
2024/02/27 00:40:00;;;;;;;32.00;19.05;;;;;;;-146.18;100.00;67994.34;10349116;28;20094;-70
2024/02/27 00:44:57;;;;;;;34.05;19.30;;;;;;;-146.18;100.00;67994.34;10354264;28;20055;-71
2024/02/27 00:49:54;;;;;;;30.17;18.60;;;;;;;-146.18;100.00;67994.34;10357176;27;20039;-72
2024/02/27 00:54:50;;;;;;;30.02;18.73;;;;;;;-146.18;100.00;67994.34;10351979;28;20514;-70
2024/02/27 00:59:46;;;;;;;31.73;18.70;;;;;;;-146.18;100.00;67994.34;10358124;27;20090;-70
2024/02/27 01:04:43;;;;;;;33.13;17.48;;;;;;;-146.18;100.00;67994.34;10360116;27;20439;-70
2024/02/27 01:09:40;;;;;;;30.75;17.38;;;;;;;-146.18;100.00;67994.34;10358495;27;20046;-71
2024/02/27 01:14:36;;;;;;;31.92;19.40;;;;;;;-146.18;100.00;67994.34;10350924;27;20066;-72
2024/02/27 01:19:33;;;;;;;34.38;19.00;;;;;;;-146.18;100.00;67994.34;10342880;27;20047;-69
2024/02/27 01:24:30;;;;;;;40.22;19.38;;;;;;;-146.18;100.00;67994.34;10359220;27;20185;-70
2024/02/27 01:29:26;;;;;;;30.20;18.30;;;;;;;-146.18;100.00;67994.34;10362570;27;20514;-70
2024/02/27 01:34:24;;;;;;;29.55;17.27;;;;;;;-146.18;100.00;67994.34;10365168;27;20036;-70
2024/02/27 01:39:20;;;;;;;31.13;17.25;;;;;;;-146.18;100.00;67994.34;10364499;27;20050;-71
2024/02/27 01:44:17;;;;;;;32.58;18.75;;;;;;;-146.18;100.00;67994.34;10354745;27;20407;-71
2024/02/27 01:49:14;;;;;;;29.90;17.70;;;;;;;-146.18;100.00;67994.34;10348203;28;20052;-72
2024/02/27 01:54:15;;;;;;;32.33;18.80;;;;;;;-146.18;100.00;67994.34;10348921;27;20054;-73
2024/02/27 01:59:13;;;;;;;35.00;19.48;;;;;;;-146.18;100.00;67994.34;10349509;27;20047;-73
2024/02/27 02:04:11;;;;;;;32.63;19.08;;;;;;;-146.18;100.00;67994.34;10353563;27;20040;-72
2024/02/27 02:09:08;;;;;;;35.72;18.67;;;;;;;-146.18;100.00;67994.34;10351556;27;20072;-71
2024/02/27 02:14:04;;;;;;;31.55;18.55;;;;;;;-146.18;100.00;67994.34;10350426;27;20400;-73
2024/02/27 02:19:01;;;;;;;30.55;18.35;;;;;;;-146.18;100.00;67994.34;10361302;27;20047;-71
2024/02/27 02:24:00;;;;;;;33.30;19.42;;;;;;;-146.18;100.00;67994.34;10343577;27;20040;-70
2024/02/27 02:28:57;;;;;;;33.97;20.27;;;;;;;-146.18;100.00;67994.34;10352331;27;20105;-72
2024/02/27 02:33:54;;;;;;;35.17;20.40;;;;;;;-146.18;100.00;67994.34;10345647;27;20040;-70
2024/02/27 02:38:50;;;;;;;37.67;20.52;;;;;;;-146.18;100.00;67994.34;10346618;27;20446;-71
2024/02/27 02:43:47;;;;;;;33.67;19.80;;;;;;;-146.18;100.00;67994.34;10350159;27;20036;-72
2024/02/27 02:48:43;;;;;;;31.63;18.65;;;;;;;-146.18;100.00;67994.34;10352451;27;20499;-71
2024/02/27 02:53:40;;;;;;;34.63;19.98;;;;;;;-146.18;100.00;67994.34;10337639;27;20048;-72
2024/02/27 02:58:36;;;;;;;33.90;21.17;;;;;;;-146.18;100.00;67994.34;10349855;27;20054;-71
2024/02/27 03:03:33;;;;;;;33.25;21.08;;;;;;;-146.18;100.00;67994.34;10345148;27;20767;-71
2024/02/27 03:08:29;;;;;;;32.40;20.45;;;;;;;-146.18;100.00;67994.34;10355020;27;20043;-72
2024/02/27 03:13:26;;;;;;;29.83;19.58;;;;;;;-146.18;100.00;67994.34;10350869;27;20461;-72
2024/02/27 03:18:22;;;;;;;30.75;19.42;;;;;;;-146.18;100.00;67994.34;10346292;27;21297;-70
2024/02/27 03:23:19;;;;;;;29.40;18.85;;;;;;;-146.18;100.00;67994.34;10336906;28;20130;-69
2024/02/27 03:28:16;;;;;;;28.70;19.52;;;;;;;-146.18;100.00;67994.34;10346538;28;20105;-70
2024/02/27 03:33:12;;;;;;;33.38;20.35;;;;;;;-146.18;100.00;67994.34;10337159;28;20904;-71
2024/02/27 03:38:09;;;;;;;30.95;19.23;;;;;;;-146.18;100.00;67994.34;10346772;27;20049;-70
2024/02/27 03:43:05;;;;;;;26.70;17.33;;;;;;;-146.18;100.00;67994.34;10346369;28;20637;-70
2024/02/27 03:48:02;;;;;;;23.13;15.13;;;;;;;-146.18;100.00;67994.34;10350773;27;20051;-72
2024/02/27 03:52:59;;;;;;;28.05;16.88;;;;;;;-146.18;100.00;67994.34;10355716;27;20071;-71
2024/02/27 03:57:55;;;;;;;28.77;18.13;;;;;;;-146.18;100.00;67994.34;10358101;27;20052;-71
2024/02/27 04:02:53;;;;;;;28.23;17.27;;;;;;;-146.18;100.00;67994.34;10362846;27;20044;-73
2024/02/27 04:07:49;;;;;;;25.63;15.82;;;;;;;-146.18;100.00;67994.34;10361504;27;20048;-71
2024/02/27 04:12:46;;;;;;;25.92;15.90;;;;;;;-146.18;100.00;67994.34;10362007;27;20543;-71
2024/02/27 04:17:43;;;;;;;24.63;16.17;;;;;;;-146.18;100.00;67994.34;10367542;27;20063;-71
2024/02/27 04:22:39;;;;;;;26.67;16.08;;;;;;;-146.18;100.00;67994.34;10358032;27;20043;-70
2024/02/27 04:27:36;;;;;;;28.88;15.95;;;;;;;-146.18;100.00;67994.34;10357503;27;20303;-70
2024/02/27 04:32:33;;;;;;;27.98;15.77;;;;;;;-146.18;100.00;67994.34;10350130;27;20097;-71
2024/02/27 04:37:30;;;;;;;26.27;15.57;;;;;;;-146.18;100.00;67994.34;10355101;27;20697;-70
2024/02/27 04:42:26;;;;;;;27.85;15.82;;;;;;;-146.18;100.00;67994.34;10362090;27;20040;-71
2024/02/27 04:47:23;;;;;;;30.42;17.38;;;;;;;-146.18;100.00;67994.34;10355426;27;20100;-70
2024/02/27 04:52:19;;;;;;;33.22;17.85;;;;;;;-146.18;100.00;67994.34;10351441;27;20691;-71
2024/02/27 04:57:16;;;;;;;30.02;17.38;;;;;;;-146.18;100.00;67994.34;10352984;27;20048;-70
2024/02/27 05:02:13;;;;;;;28.58;17.77;;;;;;;-146.18;100.00;67994.34;10344336;27;20617;-72
2024/02/27 05:07:09;;;;;;;27.50;18.20;;;;;;;-146.18;100.00;67994.34;10345372;27;20052;-70
2024/02/27 05:12:06;;;;;;;29.73;18.85;;;;;;;-146.18;100.00;67994.34;10342723;27;20047;-71
2024/02/27 05:17:03;;;;;;;33.13;19.63;;;;;;;-146.18;100.00;67994.34;10350880;27;20048;-70
2024/02/27 05:21:59;;;;;;;26.67;18.58;;;;;;;-146.18;100.00;67994.34;10347386;27;20047;-72
2024/02/27 05:26:56;;;;;;;26.48;18.40;;;;;;;-146.18;100.00;67994.34;10344032;28;20050;-70
2024/02/27 05:31:52;;;;;;;27.75;18.17;;;;;;;-146.18;100.00;67994.34;10354552;27;20044;-72
2024/02/27 05:36:49;;;;;;;25.30;18.40;;;;;;;-146.18;100.00;67994.34;10354202;28;20052;-69
2024/02/27 05:41:46;;;;;;;29.23;18.75;;;;;;;-146.18;100.00;67994.34;10336093;28;20039;-70
2024/02/27 05:46:42;;;;;;;31.42;19.92;;;;;;;-146.18;100.00;67994.34;10351860;27;20072;-72
2024/02/27 05:51:40;;;;;;;31.00;19.98;;;;;;;-146.18;100.00;67994.34;10345206;27;20135;-69
2024/02/27 05:56:37;;;;;;;27.75;18.52;;;;;;;-146.18;100.00;67994.34;10346534;27;20058;-69
2024/02/27 06:01:33;;;;;;;28.38;19.58;;;;;;;-146.18;100.00;67994.34;10335845;28;20051;-71
2024/02/27 06:06:30;;;;;;;32.63;19.75;;;;;;;-146.18;100.00;67994.34;10347131;27;20090;-71
2024/02/27 06:11:27;;;;;;;28.17;18.92;;;;;;;-146.18;100.00;67994.34;10349294;27;20051;-71
2024/02/27 06:16:23;;;;;;;30.40;19.92;;;;;;;-146.18;100.00;67994.34;10346688;27;20045;-70
2024/02/27 06:26:35;;;;;;;28.35;19.55;;;;;;;-146.18;100.00;67994.34;10355210;27;20051;-71
2024/02/27 06:31:31;;;;;;;27.33;19.30;;;;;;;-146.18;100.00;67994.34;10364098;27;20495;-72
2024/02/27 06:36:28;;;;;;;27.75;19.65;;;;;;;-146.18;100.00;67994.34;10354243;27;20458;-70
2024/02/27 06:41:25;;;;;;;29.50;20.20;;;;;;;-146.18;100.00;67994.34;10348556;27;20499;-71
2024/02/27 06:46:21;;;;;;;25.00;19.35;;;;;;;-146.18;100.00;67994.34;10354734;27;20039;-70
2024/02/27 06:51:18;;;;;;;29.95;20.17;;;;;;;-146.18;100.00;67994.34;10357562;27;20134;-69
2024/02/27 06:56:16;;;;;;;27.90;19.58;;;;;;;-146.18;100.00;67994.34;10349782;27;20108;-70
2024/02/27 07:01:14;;;;;;;31.15;21.15;;;;;;;-146.18;100.00;67994.34;10351051;27;20480;-72
2024/02/27 07:06:10;;;;;;;23.13;18.48;;;;;;;-146.18;100.00;67994.34;10345571;27;20126;-71
2024/02/27 07:11:08;;;;;;;24.08;18.33;;;;;;;-146.18;100.00;67994.34;10351957;27;20048;-72
2024/02/27 07:16:05;;;;;;;23.80;18.73;;;;;;;-146.18;100.00;67994.34;10348770;27;20071;-70
2024/02/27 07:21:02;;;;;;;22.17;17.02;;;;;;;-146.18;100.00;67994.34;10354668;27;20052;-70
2024/02/27 07:25:58;;;;;;;23.38;17.05;;;;;;;-146.18;100.00;67994.34;10356998;27;20059;-70
2024/02/27 07:30:55;;;;;;;22.15;16.52;;;;;;;-146.18;100.00;67994.34;10351370;27;21272;-73
2024/02/27 07:35:51;;;;;;;21.13;15.70;;;;;;;-146.18;100.00;67994.34;10351595;27;20055;-71
2024/02/27 07:40:50;;;;;;;19.48;16.00;;;;;;;-146.18;100.00;67994.34;10350151;27;20105;-71
2024/02/27 07:45:51;;;;;;;18.73;15.07;;;;;;;-146.18;100.00;67994.34;10349066;27;20090;-71
2024/02/27 07:50:48;;;;;;;17.23;15.20;;;;;;;-146.18;100.00;67994.34;10341356;28;20419;-70
2024/02/27 07:55:44;;;;;;;20.20;15.55;;;;;;;-146.18;100.00;67994.34;10351409;27;20044;-70
2024/02/27 08:00:41;;;;;;;20.42;15.35;;;;;;;-146.18;100.00;67994.34;10358535;27;20039;-70
2024/02/27 08:05:37;;;;;;;19.58;14.60;;;;;;;-146.18;100.00;67994.34;10349493;27;20044;-71
2024/02/27 08:10:34;;;;;;;16.98;14.45;;;;;;;-146.18;100.00;67994.34;10349840;27;20069;-71
2024/02/27 08:15:31;;;;;;;16.20;13.57;;;;;;;-146.18;100.00;67994.34;10340468;27;20503;-72
2024/02/27 08:20:27;;;;;;;21.55;13.95;;;;;;;-146.18;100.00;67994.34;10348661;28;20060;-70
2024/02/27 08:25:24;;;;;;;16.08;13.40;;;;;;;-146.18;100.00;67994.34;10347030;27;20458;-69
2024/02/27 08:30:20;;;;;;;18.55;13.50;;;;;;;-146.18;100.00;67994.34;10342650;27;20063;-70
2024/02/27 08:35:17;;;;;;;18.17;14.00;;;;;;;-146.18;100.00;67994.34;10349098;27;20052;-73
2024/02/27 08:40:13;;;;;;;17.75;14.80;;;;;;;-146.18;100.00;67994.34;10353463;27;20078;-72
2024/02/27 08:45:10;;;;;;;17.77;14.27;;;;;;;-146.18;100.00;67994.34;10356836;27;20454;-69
2024/02/27 08:50:07;;;;;;;18.55;14.38;;;;;;;-146.18;100.00;67994.34;10354737;28;20052;-71
2024/02/27 08:55:04;;;;;;;17.40;14.02;;;;;;;-146.18;100.00;67994.34;10357736;27;20071;-70
2024/02/27 09:00:01;;;;;;;18.65;15.25;;;;;;;-146.18;100.00;67994.34;10358608;28;20048;-72
2024/02/27 09:04:57;;;;;;;17.10;12.68;;;;;;;-146.18;100.00;67994.34;10356879;28;20408;-70
2024/02/27 09:09:54;;;;;;;20.38;14.45;;;;;;;-146.18;100.00;67994.34;10359856;27;20412;-71
2024/02/27 09:14:50;;;;;;;19.00;14.23;;;;;;;-146.18;100.00;67994.34;10347049;27;20039;-70
2024/02/27 09:19:47;;;;;;;16.77;13.65;;;;;;;-146.18;100.00;67994.34;10347085;27;20044;-70
2024/02/27 09:24:43;;;;;;;18.70;14.32;;;;;;;-146.18;100.00;67994.34;10344646;28;20135;-71
2024/02/27 09:29:40;;;;;;;18.10;13.82;;;;;;;-146.18;100.00;67994.34;10346855;27;20458;-71
2024/02/27 09:34:37;;;;;;;17.63;14.32;;;;;;;-146.18;100.00;67994.34;10351341;27;20514;-69
2024/02/27 09:39:33;;;;;;;17.65;14.32;;;;;;;-146.18;100.00;67994.34;10354159;27;20588;-71
2024/02/27 09:44:52;;;;;;;16.38;14.02;;;;;;;-146.18;100.00;67994.34;10347826;27;20085;-71
2024/02/27 09:49:50;;;;;;;20.05;15.10;;;;;;;-146.18;100.00;67994.34;10358392;27;20048;-70
2024/02/27 09:54:48;;;;;;;17.42;13.90;;;;;;;-146.18;100.00;67994.34;10355926;27;20040;-70
2024/02/27 09:59:47;;;;;;;17.75;14.80;;;;;;;-146.18;100.00;67994.34;10354885;27;20051;-70
2024/02/27 10:04:44;;;;;;;16.63;13.43;;;;;;;-146.18;100.00;67994.34;10359209;27;20044;-72
2024/02/27 10:09:44;;;;;;;18.10;13.07;;;;;;;-146.18;100.00;67994.34;10364125;27;20044;-70
2024/02/27 10:14:41;;;;;;;13.90;12.25;;;;;;;-146.18;100.00;67994.34;10354111;27;20036;-71
2024/02/27 10:19:38;;;;;;;13.55;12.15;;;;;;;-146.18;100.00;67994.34;10355937;27;20824;-73
2024/02/27 10:24:35;;;;;;;16.58;12.07;;;;;;;-146.18;100.00;67994.34;10356314;27;20173;-72
2024/02/27 10:29:32;;;;;;;13.10;11.48;;;;;;;-146.18;100.00;67994.34;10351188;27;20078;-77
2024/02/27 10:34:30;;;;;;;14.65;12.52;;;;;;;-146.18;100.00;67994.34;10354351;27;20511;-71
2024/02/27 10:39:28;;;;;;;12.60;11.30;;;;;;;-146.18;100.00;67994.34;10356682;27;20047;-70
2024/02/27 10:44:29;;;;;;;13.13;11.32;;;;;;;-146.18;100.00;67994.34;10347354;27;20044;-70
2024/02/27 10:49:26;;;;;;;12.88;10.68;;;;;;;-146.18;100.00;67994.34;10347103;27;20046;-70
2024/02/27 10:54:23;;;;;;;14.05;12.20;;;;;;;-146.18;100.00;67994.34;10359294;27;20044;-70
2024/02/27 10:59:23;;;;;;;14.45;12.95;;;;;;;-146.18;100.00;67994.34;10357879;27;20040;-72
2024/02/27 11:04:25;;;;;;;16.70;12.35;;;;;;;-146.18;100.00;67994.34;10354035;27;21489;-70
2024/02/27 11:09:26;;;;;;;13.27;11.65;;;;;;;-146.18;100.00;67994.34;10348758;27;20442;-71
2024/02/27 11:14:24;;;;;;;14.70;11.53;;;;;;;-146.18;100.00;67994.34;10351088;27;20494;-75
2024/02/27 11:19:24;;;;;;;12.48;11.18;;;;;;;-146.18;100.00;67994.34;10355958;27;20476;-71
2024/02/27 11:24:21;;;;;;;14.70;11.98;;;;;;;-146.18;100.00;67994.34;10351490;27;20093;-72
2024/02/27 11:29:18;;;;;;;18.20;13.07;;;;;;;-146.18;100.00;67994.34;10351451;27;20507;-71
2024/02/27 11:34:25;;;;;;;14.82;12.40;;;;;;;-146.18;100.00;67994.34;10345500;27;20090;-73
2024/02/27 11:39:31;;;;;;;17.73;13.02;;;;;;;-146.18;100.00;67994.34;10348480;27;20048;-71
2024/02/27 11:44:27;;;;;;;14.27;12.10;;;;;;;-146.18;100.00;67994.34;10339940;28;20055;-71
2024/02/27 11:49:39;;;;;;;15.90;11.98;;;;;;;-146.18;100.00;67994.34;10356431;27;20054;-71
2024/02/27 11:54:36;;;;;;;13.90;12.27;;;;;;;-146.18;100.00;67994.34;10354196;27;20044;-71
2024/02/27 11:59:33;;;;;;;15.57;12.00;;;;;;;-146.18;100.00;67994.34;10355629;27;21042;-74
2024/02/27 12:04:30;;;;;;;14.65;12.30;;;;;;;-146.18;100.00;67994.34;10354878;27;20451;-73
2024/02/27 12:09:27;;;;;;;12.77;11.48;;;;;;;-146.18;100.00;67994.34;10361478;27;20135;-71
2024/02/27 12:14:24;;;;;;;13.90;12.43;;;;;;;-146.18;100.00;67994.34;10357087;27;20443;-71
2024/02/27 12:19:20;;;;;;;12.35;11.05;;;;;;;-146.18;100.00;67994.34;10356947;27;20060;-71
2024/02/27 12:24:21;;;;;;;11.93;10.70;;;;;;;-146.18;100.00;67994.34;10360422;27;20101;-71
2024/02/27 12:29:18;;;;;;;10.65;9.55;;;;;;;-146.18;100.00;67994.34;10359800;27;20044;-71
2024/02/27 12:34:14;;;;;;;12.32;11.10;;;;;;;-146.18;100.00;67994.34;10351857;27;20102;-72
2024/02/27 12:39:11;;;;;;;15.43;10.50;;;;;;;-146.18;100.00;67994.34;10361906;27;20062;-71
2024/02/27 12:44:08;;;;;;;12.65;11.35;;;;;;;-146.18;100.00;67994.34;10359684;27;20527;-72
2024/02/27 12:49:05;;;;;;;14.00;10.05;;;;;;;-146.18;100.00;67994.34;10347978;27;20075;-71
2024/02/27 12:54:05;;;;;;;11.38;10.23;;;;;;;-146.18;100.00;67994.34;10351028;27;20047;-71
2024/02/27 12:59:01;;;;;;;10.35;9.32;;;;;;;-146.18;100.00;67994.34;10358869;27;20097;-71
2024/02/27 13:03:58;;;;;;;11.05;9.65;;;;;;;-146.18;100.00;67994.34;10341083;27;20036;-71
2024/02/27 13:08:55;;;;;;;11.20;9.30;;;;;;;-146.18;100.00;67994.34;10361360;27;20047;-71
2024/02/27 13:13:52;;;;;;;11.57;10.35;;;;;;;-146.18;100.00;67994.34;10346212;27;20118;-72
2024/02/27 13:18:48;;;;;;;11.77;10.55;;;;;;;-146.18;100.00;67994.34;10363102;27;20047;-72
2024/02/27 13:23:51;;;;;;;12.18;10.25;;;;;;;-146.18;100.00;67994.34;10349776;27;20127;-71
2024/02/27 13:28:48;;;;;;;10.68;9.68;;;;;;;-146.18;100.00;67994.34;10358941;27;20052;-71
2024/02/27 13:33:44;;;;;;;10.88;9.77;;;;;;;-146.18;100.00;67994.34;10346755;27;20509;-72
2024/02/27 13:38:41;;;;;;;11.00;9.25;;;;;;;-146.18;100.00;67994.34;10358621;27;20097;-71
2024/02/27 13:43:37;;;;;;;12.23;10.20;;;;;;;-146.18;100.00;67994.34;10360786;27;20032;-71
2024/02/27 13:48:34;;;;;;;12.02;10.07;;;;;;;-146.18;100.00;67994.34;10353861;27;20063;-72
2024/02/27 13:53:30;;;;;;;10.82;9.73;;;;;;;-146.18;100.00;67994.34;10349841;27;20040;-71
2024/02/27 13:58:27;;;;;;;13.43;10.38;;;;;;;-146.18;100.00;67994.34;10353792;27;20044;-71
2024/02/27 14:03:24;;;;;;;12.18;9.43;;;;;;;-146.18;100.00;67994.34;10348188;27;20052;-74
2024/02/27 14:08:21;;;;;;;10.70;9.60;;;;;;;-146.18;100.00;67994.34;10354795;27;20081;-70
2024/02/27 14:13:17;;;;;;;11.40;10.23;;;;;;;-146.18;100.00;67994.34;10345066;27;20051;-72
2024/02/27 14:18:14;;;;;;;10.88;9.52;;;;;;;-146.18;100.00;67994.34;10354477;27;20226;-71
2024/02/27 14:23:10;;;;;;;10.43;9.52;;;;;;;-146.18;100.00;67994.34;10350611;27;20047;-73
2024/02/27 14:28:07;;;;;;;11.75;10.57;;;;;;;-146.18;100.00;67994.34;10364765;27;20098;-71
2024/02/27 14:33:03;;;;;;;10.73;9.38;;;;;;;-146.18;100.00;67994.34;10355142;27;20059;-71
2024/02/27 14:38:00;;;;;;;11.00;9.90;;;;;;;-146.18;100.00;67994.34;10353713;27;20078;-72
2024/02/27 14:42:57;;;;;;;12.88;10.35;;;;;;;-146.18;100.00;67994.34;10346742;27;20499;-71
2024/02/27 14:47:54;;;;;;;9.98;8.98;;;;;;;-146.18;100.00;67994.34;10348723;27;20066;-72
2024/02/27 14:52:50;;;;;;;11.82;9.75;;;;;;;-146.18;100.00;67994.34;10344452;27;20135;-72
2024/02/27 14:57:47;;;;;;;13.60;9.48;;;;;;;-146.18;100.00;67994.34;10348497;27;20098;-71
2024/02/27 15:02:45;;;;;;;10.57;9.48;;;;;;;-146.18;100.00;67994.34;10357908;27;20591;-71
2024/02/27 15:07:42;;;;;;;10.52;9.30;;;;;;;-146.18;100.00;67994.34;10352070;27;20606;-71
2024/02/27 15:12:39;;;;;;;10.65;9.57;;;;;;;-146.18;100.00;67994.34;10354114;27;20135;-71
2024/02/27 15:17:35;;;;;;;15.20;10.25;;;;;;;-146.18;100.00;67994.34;10344302;27;20495;-71
2024/02/27 15:22:32;;;;;;;11.73;9.88;;;;;;;-146.18;100.00;67994.34;10345933;27;20054;-73
2024/02/27 15:27:28;;;;;;;11.57;9.80;;;;;;;-146.18;100.00;67994.34;10356301;27;20396;-72
2024/02/27 15:32:26;;;;;;;14.30;10.00;;;;;;;-146.18;100.00;67994.34;10362102;27;20074;-72
2024/02/27 15:37:23;;;;;;;10.30;9.10;;;;;;;-146.18;100.00;67994.34;10355839;27;20051;-74
2024/02/27 15:42:19;;;;;;;11.77;9.82;;;;;;;-146.18;100.00;67994.34;10368339;27;20043;-71
2024/02/27 15:47:16;;;;;;;11.45;10.13;;;;;;;-146.18;100.00;67994.34;10372704;27;20044;-70
2024/02/27 15:52:12;;;;;;;13.82;11.95;;;;;;;-146.18;100.00;67994.34;10362109;27;20044;-72
2024/02/27 15:57:09;;;;;;;11.13;9.98;;;;;;;-146.18;100.00;67994.34;10356006;27;20050;-71
2024/02/27 16:02:06;;;;;;;11.25;10.05;;;;;;;-146.18;100.00;67994.34;10366194;27;20450;-71
2024/02/27 16:07:05;;;;;;;12.65;10.13;;;;;;;-146.18;100.00;67994.34;10371346;27;20040;-71
2024/02/27 16:12:02;;;;;;;12.18;10.63;;;;;;;-146.18;100.00;67994.34;10357284;27;20044;-73
2024/02/27 16:17:14;;;;;;;12.60;10.60;;;;;;;-146.18;100.00;67994.34;10360499;27;20044;-71
2024/02/27 16:22:10;;;;;;;11.77;10.57;;;;;;;-146.18;100.00;67994.34;10346058;27;20055;-75
2024/02/27 16:27:08;;;;;;;12.10;10.65;;;;;;;-146.18;100.00;67994.34;10352918;27;20043;-71
2024/02/27 16:32:05;;;;;;;14.88;11.45;;;;;;;-146.18;100.00;67994.34;10360405;27;20059;-72
2024/02/27 16:37:03;;;;;;;12.18;10.57;;;;;;;-146.18;100.00;67994.34;10359133;27;20040;-72
2024/02/27 16:42:00;;;;;;;13.85;10.90;;;;;;;-146.18;100.00;67994.34;10351223;27;20457;-72
2024/02/27 16:46:56;;;;;;;11.55;10.45;;;;;;;-146.18;100.00;67994.34;10367382;27;20050;-72
2024/02/27 16:51:53;;;;;;;12.23;11.02;;;;;;;-146.18;100.00;67994.34;10353478;27;20055;-72
2024/02/27 16:56:49;;;;;;;12.55;11.25;;;;;;;-146.18;100.00;67994.34;10355321;27;20047;-70
2024/02/27 17:01:46;;;;;;;12.32;11.13;;;;;;;-146.18;100.00;67994.34;10343279;28;20117;-72
2024/02/27 17:06:43;;;;;;;13.23;11.43;;;;;;;-146.18;100.00;67994.34;10341053;27;20130;-70
2024/02/27 17:11:40;;;;;;;12.50;10.77;;;;;;;-146.18;100.00;67994.34;10340954;28;20044;-70
2024/02/27 17:16:37;;;;;;;14.00;11.32;;;;;;;-146.18;100.00;67994.34;10349270;27;20411;-71
2024/02/27 17:21:33;;;;;;;14.38;11.25;;;;;;;-146.18;100.00;67994.34;10339816;28;20454;-75
2024/02/27 17:26:30;;;;;;;14.30;12.00;;;;;;;-146.18;100.00;67994.34;10359663;27;20048;-71
2024/02/27 17:31:28;;;;;;;11.95;10.75;;;;;;;-146.18;100.00;67994.34;10347824;27;20044;-70
2024/02/27 17:36:24;;;;;;;12.50;11.20;;;;;;;-146.18;100.00;67994.34;10336759;27;20047;-75
2024/02/27 17:41:21;;;;;;;14.32;11.77;;;;;;;-146.18;100.00;67994.34;10349189;27;20066;-72
2024/02/27 17:46:17;;;;;;;14.63;11.38;;;;;;;-146.18;100.00;67994.34;10356611;27;20097;-71
2024/02/27 17:51:14;;;;;;;12.63;11.20;;;;;;;-146.18;100.00;67994.34;10359552;27;20174;-74
2024/02/27 17:56:13;;;;;;;14.75;12.13;;;;;;;-146.18;100.00;67994.34;10361516;28;20057;-71
2024/02/27 18:01:10;;;;;;;13.32;11.93;;;;;;;-146.18;100.00;67994.34;10347447;27;20057;-70
2024/02/27 18:06:06;;;;;;;13.32;11.73;;;;;;;-146.18;100.00;67994.34;10347752;27;20525;-70
2024/02/27 18:11:03;;;;;;;14.07;12.25;;;;;;;-146.18;100.00;67994.34;10341676;27;20405;-70
2024/02/27 18:16:00;;;;;;;15.07;11.77;;;;;;;-146.18;100.00;67994.34;10345665;27;20047;-71
2024/02/27 18:20:56;;;;;;;17.05;12.55;;;;;;;-146.18;100.00;67994.34;10343182;27;20055;-72
2024/02/27 18:25:53;;;;;;;14.23;12.13;;;;;;;-146.18;100.00;67994.34;10345287;27;20044;-75
2024/02/27 18:30:49;;;;;;;15.80;11.63;;;;;;;-146.18;100.00;67994.34;10343207;27;20537;-72
2024/02/27 18:35:53;;;;;;;16.05;12.73;;;;;;;-146.18;100.00;67994.34;10337868;27;20053;-70
2024/02/27 18:40:50;;;;;;;13.95;12.45;;;;;;;-146.18;100.00;67994.34;10342225;27;20428;-71
2024/02/27 18:45:46;;;;;;;14.68;11.80;;;;;;;-146.18;100.00;67994.34;10345495;28;20052;-74
2024/02/27 18:50:43;;;;;;;15.35;13.13;;;;;;;-146.18;100.00;67994.34;10355339;27;20039;-71
2024/02/27 18:55:39;;;;;;;12.75;10.73;;;;;;;-146.18;100.00;67994.34;10350509;27;20651;-71
2024/02/27 19:00:36;;;;;;;15.93;12.43;;;;;;;-146.18;100.00;67994.34;10345017;27;20047;-73
2024/02/27 19:05:33;;;;;;;16.77;12.85;;;;;;;-146.18;100.00;67994.34;10352318;27;20047;-71
2024/02/27 19:10:29;;;;;;;17.17;12.32;;;;;;;-146.18;100.00;67994.34;10352642;27;20491;-73
2024/02/27 19:15:26;;;;;;;13.55;11.77;;;;;;;-146.18;100.00;67994.34;10342338;27;20052;-71
2024/02/27 19:20:22;;;;;;;15.25;11.85;;;;;;;-146.18;100.00;67994.34;10337751;27;20518;-72
2024/02/27 19:25:19;;;;;;;14.45;11.63;;;;;;;-146.18;100.00;67994.34;10348424;27;20566;-72
2024/02/27 19:30:16;;;;;;;15.13;12.40;;;;;;;-146.18;100.00;67994.34;10349294;27;20039;-71
2024/02/27 19:35:12;;;;;;;15.63;13.93;;;;;;;-146.18;100.00;67994.34;10342805;27;20044;-73
2024/02/27 19:40:10;;;;;;;16.20;13.55;;;;;;;-146.18;100.00;67994.34;10342738;27;20142;-72
2024/02/27 19:45:07;;;;;;;15.52;13.93;;;;;;;-146.18;100.00;67994.34;10358845;27;20773;-71
2024/02/27 19:50:08;;;;;;;18.65;13.65;;;;;;;-146.18;100.00;67994.34;10349951;27;20056;-71
2024/02/27 19:55:05;;;;;;;18.02;14.65;;;;;;;-146.18;100.00;67994.34;10351410;27;20120;-70
2024/02/27 20:00:02;;;;;;;16.00;14.30;;;;;;;-146.18;100.00;67994.34;10344202;28;20494;-72
2024/02/27 20:04:59;;;;;;;16.25;14.40;;;;;;;-146.18;100.00;67994.34;10332099;28;20104;-72
2024/02/27 20:09:56;;;;;;;16.33;14.65;;;;;;;-146.18;100.00;67994.34;10340101;28;20734;-73
2024/02/27 20:14:52;;;;;;;18.92;15.05;;;;;;;-146.18;100.00;67994.34;10346546;27;20487;-72
2024/02/27 20:19:49;;;;;;;15.93;14.15;;;;;;;-146.18;100.00;67994.34;10347175;27;20051;-72
2024/02/27 20:24:45;;;;;;;17.25;15.25;;;;;;;-146.18;100.00;67994.34;10333182;27;20070;-74
2024/02/27 20:29:42;;;;;;;15.95;13.68;;;;;;;-146.18;100.00;67994.34;10353920;27;20049;-71
2024/02/27 20:34:54;;;;;;;18.67;15.13;;;;;;;-146.18;100.00;67994.34;10346429;28;20040;-73
2024/02/27 20:39:51;;;;;;;17.75;15.35;;;;;;;-146.18;100.00;67994.34;10352669;27;20052;-73
2024/02/27 20:44:48;;;;;;;23.00;15.70;;;;;;;-146.18;100.00;67994.34;10352069;27;20143;-74
2024/02/27 20:49:45;;;;;;;17.90;14.77;;;;;;;-146.18;100.00;67994.34;10355293;27;20101;-75
2024/02/27 20:54:42;;;;;;;18.02;14.15;;;;;;;-146.18;100.00;67994.34;10358989;27;20090;-73
2024/02/27 20:59:38;;;;;;;18.58;15.15;;;;;;;-146.18;100.00;67994.34;10352549;27;20044;-72
2024/02/27 21:04:35;;;;;;;17.17;14.35;;;;;;;-146.18;100.00;67994.34;10353547;27;20044;-71
2024/02/27 21:09:31;;;;;;;17.38;14.30;;;;;;;-146.18;100.00;67994.34;10351158;27;20047;-71
2024/02/27 21:14:29;;;;;;;16.55;14.13;;;;;;;-146.18;100.00;67994.34;10357499;27;20535;-76
2024/02/27 21:19:26;;;;;;;20.25;15.23;;;;;;;-146.18;100.00;67994.34;10355010;28;20044;-71
2024/02/27 21:24:23;;;;;;;22.88;15.05;;;;;;;-146.18;100.00;67994.34;10354331;27;20485;-71
2024/02/27 21:29:19;;;;;;;20.02;16.13;;;;;;;-146.18;100.00;67994.34;10354132;27;20127;-71
2024/02/27 21:34:17;;;;;;;22.92;16.35;;;;;;;-146.18;100.00;67994.34;10354625;27;20036;-72
2024/02/27 21:39:13;;;;;;;22.58;16.27;;;;;;;-146.18;100.00;67994.34;10356513;27;20381;-73
2024/02/27 21:44:10;;;;;;;20.38;16.08;;;;;;;-146.18;100.00;67994.34;10343719;27;20675;-71
2024/02/27 21:49:07;;;;;;;23.55;17.35;;;;;;;-146.18;100.00;67994.34;10348661;28;20044;-72